Terminal Aerodrome Forecast
Issued by NWS

Home | Current Version | Previous Version | Text Only | Print | Product List | Glossary On
Versions: 1 2 3 4 5 6 7 8 9 10 11 12 13 14 15 16 17 18 19 20 21 22 23 24 25 26 27 28 29 30 31
000
FTUS43 KDLH 301200 AAA
TAFBRD
TAF AMD
KBRD 301223Z 3012/3112 36006KT P6SM OVC008
      TEMPO 3012/3016 3SM -DZ BR OVC004
     FM301600 02006KT P6SM BKN015
     FM302000 04005KT P6SM VCSH BKN035
     FM310000 09003KT P6SM SCT040
     FM310800 14006KT 3SM BR BKN015=

USA.gov is the U.S. government's official web portal to all federal, state and local government web resources and services.